sensor_id;sensor_type;location;lat;lon;timestamp;temperature;humidity
11132;DHT22;5620;53.570;9.718;2022-11-15T00:00:52;7.20;1.00
11132;DHT22;5620;53.570;9.718;2022-11-15T00:03:19;7.20;1.00
11132;DHT22;5620;53.570;9.718;2022-11-15T00:05:45;7.20;1.00
11132;DHT22;5620;53.570;9.718;2022-11-15T00:08:12;7.20;1.00
11132;DHT22;5620;53.570;9.718;2022-11-15T00:10:39;7.20;1.00
11132;DHT22;5620;53.570;9.718;2022-11-15T00:13:10;7.20;1.00
11132;DHT22;5620;53.570;9.718;2022-11-15T00:15:40;7.20;1.00
11132;DHT22;5620;53.570;9.718;2022-11-15T00:18:13;7.30;99.90
11132;DHT22;5620;53.570;9.718;2022-11-15T00:20:39;7.50;99.90
11132;DHT22;5620;53.570;9.718;2022-11-15T00:23:06;7.70;99.90
11132;DHT22;5620;53.570;9.718;2022-11-15T00:25:32;7.90;93.00
11132;DHT22;5620;53.570;9.718;2022-11-15T00:28:00;8.10;1.00
11132;DHT22;5620;53.570;9.718;2022-11-15T00:30:27;8.20;1.00
11132;DHT22;5620;53.570;9.718;2022-11-15T00:32:55;8.30;1.00
11132;DHT22;5620;53.570;9.718;2022-11-15T00:35:21;8.40;99.90
11132;DHT22;5620;53.570;9.718;2022-11-15T00:37:47;8.40;81.10
11132;DHT22;5620;53.570;9.718;2022-11-15T00:40:16;8.50;53.70
11132;DHT22;5620;53.570;9.718;2022-11-15T00:42:44;8.50;2.30
11132;DHT22;5620;53.570;9.718;2022-11-15T00:45:10;8.60;1.00
11132;DHT22;5620;53.570;9.718;2022-11-15T00:47:36;8.60;1.00
11132;DHT22;5620;53.570;9.718;2022-11-15T00:50:02;8.70;1.00
11132;DHT22;5620;53.570;9.718;2022-11-15T00:52:31;8.80;1.00
11132;DHT22;5620;53.570;9.718;2022-11-15T00:54:59;8.80;1.00
11132;DHT22;5620;53.570;9.718;2022-11-15T00:57:25;8.80;1.00
11132;DHT22;5620;53.570;9.718;2022-11-15T00:59:51;8.90;99.90
11132;DHT22;5620;53.570;9.718;2022-11-15T01:02:17;8.80;55.80
11132;DHT22;5620;53.570;9.718;2022-11-15T01:04:44;8.70;1.00
11132;DHT22;5620;53.570;9.718;2022-11-15T01:07:09;8.50;1.00
11132;DHT22;5620;53.570;9.718;2022-11-15T01:09:35;8.40;1.00
11132;DHT22;5620;53.570;9.718;2022-11-15T01:12:00;8.20;1.00
11132;DHT22;5620;53.570;9.718;2022-11-15T01:14:27;8.00;1.00
11132;DHT22;5620;53.570;9.718;2022-11-15T01:16:55;7.90;1.00
11132;DHT22;5620;53.570;9.718;2022-11-15T01:19:21;7.70;6.80
11132;DHT22;5620;53.570;9.718;2022-11-15T01:21:51;7.60;88.80
11132;DHT22;5620;53.570;9.718;2022-11-15T01:24:18;7.50;99.90
11132;DHT22;5620;53.570;9.718;2022-11-15T01:26:44;7.40;99.90
11132;DHT22;5620;53.570;9.718;2022-11-15T01:29:10;7.40;99.90
11132;DHT22;5620;53.570;9.718;2022-11-15T01:31:36;7.30;99.90
11132;DHT22;5620;53.570;9.718;2022-11-15T01:34:03;7.30;99.90
11132;DHT22;5620;53.570;9.718;2022-11-15T01:36:30;7.20;99.90
11132;DHT22;5620;53.570;9.718;2022-11-15T01:38:57;7.20;99.90
11132;DHT22;5620;53.570;9.718;2022-11-15T01:41:25;7.20;99.90
11132;DHT22;5620;53.570;9.718;2022-11-15T01:43:55;7.20;99.90
11132;DHT22;5620;53.570;9.718;2022-11-15T01:49:21;7.20;1.00
11132;DHT22;5620;53.570;9.718;2022-11-15T01:51:49;7.20;1.00
11132;DHT22;5620;53.570;9.718;2022-11-15T01:54:19;7.10;1.00
11132;DHT22;5620;53.570;9.718;2022-11-15T01:56:52;7.10;1.00
11132;DHT22;5620;53.570;9.718;2022-11-15T01:59:19;7.10;1.00
11132;DHT22;5620;53.570;9.718;2022-11-15T02:01:45;7.10;1.00
11132;DHT22;5620;53.570;9.718;2022-11-15T02:04:25;7.10;1.00
11132;DHT22;5620;53.570;9.718;2022-11-15T02:06:55;7.10;1.00
11132;DHT22;5620;53.570;9.718;2022-11-15T02:09:25;7.10;1.00
11132;DHT22;5620;53.570;9.718;2022-11-15T02:11:52;7.10;1.00
11132;DHT22;5620;53.570;9.718;2022-11-15T02:14:22;7.10;1.00
11132;DHT22;5620;53.570;9.718;2022-11-15T02:23:04;7.10;16.30
11132;DHT22;5620;53.570;9.718;2022-11-15T02:34:15;7.00;99.90
11132;DHT22;5620;53.570;9.718;2022-11-15T02:39:41;7.00;99.90
11132;DHT22;5620;53.570;9.718;2022-11-15T02:42:23;7.00;99.90
11132;DHT22;5620;53.570;9.718;2022-11-15T02:44:52;7.00;99.90
11132;DHT22;5620;53.570;9.718;2022-11-15T02:47:22;7.00;99.90
11132;DHT22;5620;53.570;9.718;2022-11-15T02:49:53;7.00;99.90
11132;DHT22;5620;53.570;9.718;2022-11-15T02:52:21;7.00;1.00
11132;DHT22;5620;53.570;9.718;2022-11-15T02:54:58;7.00;1.00
11132;DHT22;5620;53.570;9.718;2022-11-15T02:57:52;7.00;1.00
11132;DHT22;5620;53.570;9.718;2022-11-15T03:00:20;7.00;1.00
11132;DHT22;5620;53.570;9.718;2022-11-15T03:03:17;7.00;1.00
11132;DHT22;5620;53.570;9.718;2022-11-15T03:05:56;7.00;1.00
11132;DHT22;5620;53.570;9.718;2022-11-15T03:11:21;7.00;2.80
11132;DHT22;5620;53.570;9.718;2022-11-15T03:16:36;7.10;24.30
11132;DHT22;5620;53.570;9.718;2022-11-15T03:19:45;7.10;94.50
11132;DHT22;5620;53.570;9.718;2022-11-15T03:22:14;7.10;99.90
11132;DHT22;5620;53.570;9.718;2022-11-15T03:24:42;7.20;99.90
11132;DHT22;5620;53.570;9.718;2022-11-15T03:27:14;7.20;99.90
11132;DHT22;5620;53.570;9.718;2022-11-15T03:29:48;7.30;99.90
11132;DHT22;5620;53.570;9.718;2022-11-15T03:32:20;7.30;99.90
11132;DHT22;5620;53.570;9.718;2022-11-15T03:34:53;7.30;99.90
11132;DHT22;5620;53.570;9.718;2022-11-15T03:37:35;7.40;99.90
11132;DHT22;5620;53.570;9.718;2022-11-15T03:40:04;7.40;99.90
11132;DHT22;5620;53.570;9.718;2022-11-15T03:42:38;7.40;99.90
11132;DHT22;5620;53.570;9.718;2022-11-15T03:45:27;7.40;99.90
11132;DHT22;5620;53.570;9.718;2022-11-15T03:48:14;7.50;99.90
11132;DHT22;5620;53.570;9.718;2022-11-15T03:50:42;7.50;99.90
11132;DHT22;5620;53.570;9.718;2022-11-15T03:53:10;7.50;99.90
11132;DHT22;5620;53.570;9.718;2022-11-15T03:55:37;7.50;99.90
11132;DHT22;5620;53.570;9.718;2022-11-15T03:58:04;7.60;1.00
11132;DHT22;5620;53.570;9.718;2022-11-15T04:00:29;7.70;1.00
11132;DHT22;5620;53.570;9.718;2022-11-15T04:02:56;7.90;1.00
11132;DHT22;5620;53.570;9.718;2022-11-15T04:05:25;8.10;10.10
11132;DHT22;5620;53.570;9.718;2022-11-15T04:07:50;8.30;1.00
11132;DHT22;5620;53.570;9.718;2022-11-15T04:10:17;8.40;1.00
11132;DHT22;5620;53.570;9.718;2022-11-15T04:12:45;8.70;1.00
11132;DHT22;5620;53.570;9.718;2022-11-15T04:15:14;8.80;99.90
11132;DHT22;5620;53.570;9.718;2022-11-15T04:17:49;9.00;99.90
11132;DHT22;5620;53.570;9.718;2022-11-15T04:20:22;9.10;1.30
11132;DHT22;5620;53.570;9.718;2022-11-15T04:22:51;9.20;1.00
11132;DHT22;5620;53.570;9.718;2022-11-15T04:25:18;9.30;1.00
11132;DHT22;5620;53.570;9.718;2022-11-15T04:27:44;9.40;1.00
11132;DHT22;5620;53.570;9.718;2022-11-15T04:30:11;9.50;99.90
11132;DHT22;5620;53.570;9.718;2022-11-15T04:32:38;9.60;99.90
11132;DHT22;5620;53.570;9.718;2022-11-15T04:35:03;9.70;99.90
11132;DHT22;5620;53.570;9.718;2022-11-15T04:37:29;9.80;99.90
11132;DHT22;5620;53.570;9.718;2022-11-15T04:39:55;9.90;99.90
11132;DHT22;5620;53.570;9.718;2022-11-15T04:42:20;9.90;1.00
11132;DHT22;5620;53.570;9.718;2022-11-15T04:44:47;10.00;1.00
11132;DHT22;5620;53.570;9.718;2022-11-15T04:47:16;10.00;1.00
11132;DHT22;5620;53.570;9.718;2022-11-15T04:49:41;10.10;99.90
11132;DHT22;5620;53.570;9.718;2022-11-15T04:52:07;10.20;99.90
11132;DHT22;5620;53.570;9.718;2022-11-15T04:54:33;10.20;99.90
11132;DHT22;5620;53.570;9.718;2022-11-15T04:57:00;10.30;99.90
11132;DHT22;5620;53.570;9.718;2022-11-15T04:59:27;10.30;68.10
11132;DHT22;5620;53.570;9.718;2022-11-15T05:01:53;10.40;1.00
11132;DHT22;5620;53.570;9.718;2022-11-15T05:04:18;10.50;1.00
11132;DHT22;5620;53.570;9.718;2022-11-15T05:06:45;10.60;1.00
11132;DHT22;5620;53.570;9.718;2022-11-15T05:09:11;10.60;1.00
11132;DHT22;5620;53.570;9.718;2022-11-15T05:11:36;10.70;99.90
11132;DHT22;5620;53.570;9.718;2022-11-15T05:14:02;10.70;99.90
11132;DHT22;5620;53.570;9.718;2022-11-15T05:16:28;10.80;99.90
11132;DHT22;5620;53.570;9.718;2022-11-15T05:18:54;10.80;99.90
11132;DHT22;5620;53.570;9.718;2022-11-15T05:21:22;10.80;12.60
11132;DHT22;5620;53.570;9.718;2022-11-15T05:23:49;10.90;1.00
11132;DHT22;5620;53.570;9.718;2022-11-15T05:26:17;10.90;1.00
11132;DHT22;5620;53.570;9.718;2022-11-15T05:28:43;11.00;1.00
11132;DHT22;5620;53.570;9.718;2022-11-15T05:31:15;11.00;1.00
11132;DHT22;5620;53.570;9.718;2022-11-15T05:33:41;11.10;99.90
11132;DHT22;5620;53.570;9.718;2022-11-15T05:38:59;11.10;99.90
11132;DHT22;5620;53.570;9.718;2022-11-15T05:41:30;11.10;86.70
11132;DHT22;5620;53.570;9.718;2022-11-15T05:43:57;11.10;34.50
11132;DHT22;5620;53.570;9.718;2022-11-15T05:46:24;11.10;13.70
11132;DHT22;5620;53.570;9.718;2022-11-15T05:48:53;11.00;1.00
11132;DHT22;5620;53.570;9.718;2022-11-15T05:51:23;11.00;1.00
11132;DHT22;5620;53.570;9.718;2022-11-15T05:53:49;11.00;1.00
11132;DHT22;5620;53.570;9.718;2022-11-15T05:56:18;11.00;1.00
11132;DHT22;5620;53.570;9.718;2022-11-15T05:58:45;11.00;1.00
11132;DHT22;5620;53.570;9.718;2022-11-15T06:01:12;11.00;1.00
11132;DHT22;5620;53.570;9.718;2022-11-15T06:03:38;10.90;1.00
11132;DHT22;5620;53.570;9.718;2022-11-15T06:06:06;10.90;1.00
11132;DHT22;5620;53.570;9.718;2022-11-15T06:08:33;10.90;1.00
11132;DHT22;5620;53.570;9.718;2022-11-15T06:11:04;10.90;1.00
11132;DHT22;5620;53.570;9.718;2022-11-15T06:13:30;10.90;1.00
11132;DHT22;5620;53.570;9.718;2022-11-15T06:15:59;10.90;1.00
11132;DHT22;5620;53.570;9.718;2022-11-15T06:18:27;10.90;99.90
11132;DHT22;5620;53.570;9.718;2022-11-15T06:20:53;10.90;99.90
11132;DHT22;5620;53.570;9.718;2022-11-15T06:23:18;10.80;99.90
11132;DHT22;5620;53.570;9.718;2022-11-15T06:25:45;10.80;99.90
11132;DHT22;5620;53.570;9.718;2022-11-15T06:28:10;10.80;99.90
11132;DHT22;5620;53.570;9.718;2022-11-15T06:30:36;10.70;99.90
11132;DHT22;5620;53.570;9.718;2022-11-15T06:33:04;10.80;99.90
11132;DHT22;5620;53.570;9.718;2022-11-15T06:35:33;10.80;99.90
11132;DHT22;5620;53.570;9.718;2022-11-15T06:38:06;10.70;99.90
11132;DHT22;5620;53.570;9.718;2022-11-15T06:40:39;10.80;99.90
11132;DHT22;5620;53.570;9.718;2022-11-15T06:43:07;10.80;99.90
11132;DHT22;5620;53.570;9.718;2022-11-15T06:45:35;10.80;89.40
11132;DHT22;5620;53.570;9.718;2022-11-15T06:48:02;10.80;91.70
11132;DHT22;5620;53.570;9.718;2022-11-15T06:50:27;10.80;99.00
11132;DHT22;5620;53.570;9.718;2022-11-15T06:52:53;10.80;88.60
11132;DHT22;5620;53.570;9.718;2022-11-15T06:55:19;10.90;72.50
11132;DHT22;5620;53.570;9.718;2022-11-15T06:57:51;10.90;46.20
11132;DHT22;5620;53.570;9.718;2022-11-15T07:00:20;10.90;1.00
11132;DHT22;5620;53.570;9.718;2022-11-15T07:02:48;10.90;1.00
11132;DHT22;5620;53.570;9.718;2022-11-15T07:05:14;10.90;1.00
11132;DHT22;5620;53.570;9.718;2022-11-15T07:07:42;10.90;1.00
11132;DHT22;5620;53.570;9.718;2022-11-15T07:10:09;10.90;1.00
11132;DHT22;5620;53.570;9.718;2022-11-15T07:12:35;10.90;1.00
11132;DHT22;5620;53.570;9.718;2022-11-15T07:15:02;10.90;1.00
11132;DHT22;5620;53.570;9.718;2022-11-15T07:17:29;10.90;1.00
11132;DHT22;5620;53.570;9.718;2022-11-15T07:19:57;10.90;1.00
11132;DHT22;5620;53.570;9.718;2022-11-15T07:22:22;10.90;1.00
11132;DHT22;5620;53.570;9.718;2022-11-15T07:24:49;10.90;1.00
11132;DHT22;5620;53.570;9.718;2022-11-15T07:27:16;10.80;1.00
11132;DHT22;5620;53.570;9.718;2022-11-15T07:29:42;10.80;1.00
11132;DHT22;5620;53.570;9.718;2022-11-15T07:32:08;10.90;1.00
11132;DHT22;5620;53.570;9.718;2022-11-15T07:34:34;10.90;1.00
11132;DHT22;5620;53.570;9.718;2022-11-15T07:37:00;11.00;1.00
11132;DHT22;5620;53.570;9.718;2022-11-15T07:39:26;11.10;1.00
11132;DHT22;5620;53.570;9.718;2022-11-15T07:41:51;11.10;1.00
11132;DHT22;5620;53.570;9.718;2022-11-15T07:44:18;11.10;1.00
11132;DHT22;5620;53.570;9.718;2022-11-15T07:46:44;11.10;1.00
11132;DHT22;5620;53.570;9.718;2022-11-15T07:49:11;11.10;1.00
11132;DHT22;5620;53.570;9.718;2022-11-15T07:51:36;11.20;1.00
11132;DHT22;5620;53.570;9.718;2022-11-15T07:54:02;11.20;1.00
11132;DHT22;5620;53.570;9.718;2022-11-15T07:56:28;11.20;1.00
11132;DHT22;5620;53.570;9.718;2022-11-15T07:58:54;11.20;99.90
11132;DHT22;5620;53.570;9.718;2022-11-15T08:01:20;11.20;99.90
11132;DHT22;5620;53.570;9.718;2022-11-15T08:03:47;11.30;99.90
11132;DHT22;5620;53.570;9.718;2022-11-15T08:06:13;11.30;99.90
11132;DHT22;5620;53.570;9.718;2022-11-15T08:08:41;11.40;99.90
11132;DHT22;5620;53.570;9.718;2022-11-15T08:11:07;11.50;99.90
11132;DHT22;5620;53.570;9.718;2022-11-15T08:13:33;11.50;99.90
11132;DHT22;5620;53.570;9.718;2022-11-15T08:16:02;11.50;99.90
11132;DHT22;5620;53.570;9.718;2022-11-15T08:18:28;11.50;99.90
11132;DHT22;5620;53.570;9.718;2022-11-15T08:20:57;11.60;99.90
11132;DHT22;5620;53.570;9.718;2022-11-15T08:23:25;11.60;99.90
11132;DHT22;5620;53.570;9.718;2022-11-15T08:25:58;11.70;99.90
11132;DHT22;5620;53.570;9.718;2022-11-15T08:28:23;11.70;99.90
11132;DHT22;5620;53.570;9.718;2022-11-15T08:30:49;11.80;99.90
11132;DHT22;5620;53.570;9.718;2022-11-15T08:33:14;11.90;99.90
11132;DHT22;5620;53.570;9.718;2022-11-15T08:35:44;12.00;99.90
11132;DHT22;5620;53.570;9.718;2022-11-15T08:38:11;12.10;99.90
11132;DHT22;5620;53.570;9.718;2022-11-15T08:40:41;12.20;94.60
11132;DHT22;5620;53.570;9.718;2022-11-15T08:43:06;12.30;63.50
11132;DHT22;5620;53.570;9.718;2022-11-15T08:45:34;12.40;11.60
11132;DHT22;5620;53.570;9.718;2022-11-15T08:48:03;12.40;1.00
11132;DHT22;5620;53.570;9.718;2022-11-15T08:50:28;12.40;1.00
11132;DHT22;5620;53.570;9.718;2022-11-15T08:52:54;12.40;1.00
11132;DHT22;5620;53.570;9.718;2022-11-15T08:55:20;12.40;1.00
11132;DHT22;5620;53.570;9.718;2022-11-15T08:57:46;12.40;1.00
11132;DHT22;5620;53.570;9.718;2022-11-15T09:00:13;12.30;1.00
11132;DHT22;5620;53.570;9.718;2022-11-15T09:02:40;12.10;1.00
11132;DHT22;5620;53.570;9.718;2022-11-15T09:05:07;12.00;1.00
11132;DHT22;5620;53.570;9.718;2022-11-15T09:07:33;11.90;1.00
11132;DHT22;5620;53.570;9.718;2022-11-15T09:10:00;12.00;1.00
11132;DHT22;5620;53.570;9.718;2022-11-15T09:12:27;12.10;1.00
11132;DHT22;5620;53.570;9.718;2022-11-15T09:14:53;12.30;1.00
11132;DHT22;5620;53.570;9.718;2022-11-15T09:17:19;12.50;1.00
11132;DHT22;5620;53.570;9.718;2022-11-15T09:19:46;12.70;1.00
11132;DHT22;5620;53.570;9.718;2022-11-15T09:22:12;12.90;1.00
11132;DHT22;5620;53.570;9.718;2022-11-15T09:24:40;13.20;1.00
11132;DHT22;5620;53.570;9.718;2022-11-15T09:27:07;13.50;1.00
11132;DHT22;5620;53.570;9.718;2022-11-15T09:29:35;13.80;99.90
11132;DHT22;5620;53.570;9.718;2022-11-15T09:32:01;14.00;99.90
11132;DHT22;5620;53.570;9.718;2022-11-15T09:34:28;14.20;99.90
11132;DHT22;5620;53.570;9.718;2022-11-15T09:36:53;14.40;99.90
11132;DHT22;5620;53.570;9.718;2022-11-15T09:39:20;14.60;99.90
11132;DHT22;5620;53.570;9.718;2022-11-15T09:42:15;14.70;99.90
11132;DHT22;5620;53.570;9.718;2022-11-15T09:50:54;14.80;47.40
11132;DHT22;5620;53.570;9.718;2022-11-15T09:53:33;14.90;25.70
11132;DHT22;5620;53.570;9.718;2022-11-15T09:56:03;14.80;1.00
11132;DHT22;5620;53.570;9.718;2022-11-15T09:58:38;14.80;1.00
11132;DHT22;5620;53.570;9.718;2022-11-15T10:01:12;14.80;1.00
11132;DHT22;5620;53.570;9.718;2022-11-15T10:03:42;14.80;1.00
11132;DHT22;5620;53.570;9.718;2022-11-15T10:06:26;14.70;1.00
11132;DHT22;5620;53.570;9.718;2022-11-15T10:09:05;14.60;1.00
11132;DHT22;5620;53.570;9.718;2022-11-15T10:11:35;14.40;1.00
11132;DHT22;5620;53.570;9.718;2022-11-15T10:14:09;14.30;1.00
11132;DHT22;5620;53.570;9.718;2022-11-15T10:22:27;14.00;1.00
11132;DHT22;5620;53.570;9.718;2022-11-15T10:25:21;13.80;1.00
11132;DHT22;5620;53.570;9.718;2022-11-15T10:27:57;13.70;1.00
11132;DHT22;5620;53.570;9.718;2022-11-15T10:30:36;13.70;1.00
11132;DHT22;5620;53.570;9.718;2022-11-15T10:33:25;13.70;1.00
11132;DHT22;5620;53.570;9.718;2022-11-15T10:36:16;13.70;1.00
11132;DHT22;5620;53.570;9.718;2022-11-15T10:46:34;13.70;1.00
11132;DHT22;5620;53.570;9.718;2022-11-15T10:51:52;14.10;1.00
11132;DHT22;5620;53.570;9.718;2022-11-15T10:54:43;14.20;1.00
11132;DHT22;5620;53.570;9.718;2022-11-15T10:57:30;14.30;1.00
11132;DHT22;5620;53.570;9.718;2022-11-15T11:02:38;14.20;1.00
11132;DHT22;5620;53.570;9.718;2022-11-15T11:07:56;14.20;1.00
11132;DHT22;5620;53.570;9.718;2022-11-15T11:10:22;14.30;1.00
11132;DHT22;5620;53.570;9.718;2022-11-15T11:12:49;14.30;1.00
11132;DHT22;5620;53.570;9.718;2022-11-15T11:15:16;14.40;1.00
11132;DHT22;5620;53.570;9.718;2022-11-15T11:20:58;14.40;1.00
11132;DHT22;5620;53.570;9.718;2022-11-15T11:23:45;14.40;1.00
11132;DHT22;5620;53.570;9.718;2022-11-15T11:40:43;18.10;1.00
11132;DHT22;5620;53.570;9.718;2022-11-15T11:49:15;17.60;99.90
11132;DHT22;5620;53.570;9.718;2022-11-15T11:51:43;17.20;99.90
11132;DHT22;5620;53.570;9.718;2022-11-15T11:57:49;16.70;99.90
11132;DHT22;5620;53.570;9.718;2022-11-15T12:00:23;16.80;99.90
11132;DHT22;5620;53.570;9.718;2022-11-15T12:05:49;17.00;99.90
11132;DHT22;5620;53.570;9.718;2022-11-15T12:14:16;17.40;99.90
11132;DHT22;5620;53.570;9.718;2022-11-15T12:16:45;17.50;99.90
11132;DHT22;5620;53.570;9.718;2022-11-15T12:19:10;17.40;99.90
11132;DHT22;5620;53.570;9.718;2022-11-15T12:30:07;17.40;99.90
11132;DHT22;5620;53.570;9.718;2022-11-15T12:32:37;17.50;99.90
11132;DHT22;5620;53.570;9.718;2022-11-15T12:35:20;17.80;99.90
11132;DHT22;5620;53.570;9.718;2022-11-15T12:37:49;18.10;99.90
11132;DHT22;5620;53.570;9.718;2022-11-15T12:40:32;18.30;99.90
11132;DHT22;5620;53.570;9.718;2022-11-15T12:45:44;18.40;99.90
11132;DHT22;5620;53.570;9.718;2022-11-15T12:50:53;18.20;99.90
11132;DHT22;5620;53.570;9.718;2022-11-15T12:53:39;18.20;99.90
11132;DHT22;5620;53.570;9.718;2022-11-15T12:56:20;18.30;99.90
11132;DHT22;5620;53.570;9.718;2022-11-15T13:12:08;19.10;99.90
11132;DHT22;5620;53.570;9.718;2022-11-15T13:23:16;21.30;54.10
11132;DHT22;5620;53.570;9.718;2022-11-15T13:26:10;21.80;15.90
11132;DHT22;5620;53.570;9.718;2022-11-15T13:28:51;22.50;1.00
11132;DHT22;5620;53.570;9.718;2022-11-15T13:31:30;23.40;1.00
11132;DHT22;5620;53.570;9.718;2022-11-15T13:34:12;24.00;1.00
11132;DHT22;5620;53.570;9.718;2022-11-15T13:36:40;24.60;1.00
11132;DHT22;5620;53.570;9.718;2022-11-15T13:39:14;25.20;1.00
11132;DHT22;5620;53.570;9.718;2022-11-15T13:41:50;25.70;1.00
11132;DHT22;5620;53.570;9.718;2022-11-15T13:44:29;26.20;1.00
11132;DHT22;5620;53.570;9.718;2022-11-15T13:47:09;26.70;1.00
11132;DHT22;5620;53.570;9.718;2022-11-15T13:49:39;27.30;1.00
11132;DHT22;5620;53.570;9.718;2022-11-15T13:52:09;27.60;1.00
11132;DHT22;5620;53.570;9.718;2022-11-15T13:57:20;27.40;1.00
11132;DHT22;5620;53.570;9.718;2022-11-15T13:59:53;27.00;1.00
11132;DHT22;5620;53.570;9.718;2022-11-15T14:02:24;26.10;1.00
11132;DHT22;5620;53.570;9.718;2022-11-15T14:04:54;25.10;1.00
11132;DHT22;5620;53.570;9.718;2022-11-15T14:07:23;23.70;1.00
11132;DHT22;5620;53.570;9.718;2022-11-15T14:09:50;22.40;1.00
11132;DHT22;5620;53.570;9.718;2022-11-15T14:15:38;20.40;1.00
11132;DHT22;5620;53.570;9.718;2022-11-15T14:18:06;19.40;1.00
11132;DHT22;5620;53.570;9.718;2022-11-15T14:20:42;18.70;1.00
11132;DHT22;5620;53.570;9.718;2022-11-15T14:23:27;18.10;1.00
11132;DHT22;5620;53.570;9.718;2022-11-15T14:25:57;17.60;1.00
11132;DHT22;5620;53.570;9.718;2022-11-15T14:28:29;17.20;1.00
11132;DHT22;5620;53.570;9.718;2022-11-15T14:30:57;16.70;1.00
11132;DHT22;5620;53.570;9.718;2022-11-15T14:33:39;16.40;1.00
11132;DHT22;5620;53.570;9.718;2022-11-15T14:36:19;16.00;1.00
11132;DHT22;5620;53.570;9.718;2022-11-15T14:38:47;15.80;1.00
11132;DHT22;5620;53.570;9.718;2022-11-15T14:41:22;15.60;1.00
11132;DHT22;5620;53.570;9.718;2022-11-15T14:43:49;15.50;1.00
11132;DHT22;5620;53.570;9.718;2022-11-15T14:46:17;15.40;1.00
11132;DHT22;5620;53.570;9.718;2022-11-15T14:48:42;15.30;1.00
11132;DHT22;5620;53.570;9.718;2022-11-15T14:51:16;15.10;1.00
11132;DHT22;5620;53.570;9.718;2022-11-15T14:53:43;14.90;1.00
11132;DHT22;5620;53.570;9.718;2022-11-15T14:56:09;14.80;1.00
11132;DHT22;5620;53.570;9.718;2022-11-15T14:58:36;14.70;1.00
11132;DHT22;5620;53.570;9.718;2022-11-15T15:01:20;14.60;1.00
11132;DHT22;5620;53.570;9.718;2022-11-15T15:03:46;14.50;1.00
11132;DHT22;5620;53.570;9.718;2022-11-15T15:06:13;14.40;1.00
11132;DHT22;5620;53.570;9.718;2022-11-15T15:08:40;14.30;1.00
11132;DHT22;5620;53.570;9.718;2022-11-15T15:11:29;14.20;10.10
11132;DHT22;5620;53.570;9.718;2022-11-15T15:13:55;14.20;29.70
11132;DHT22;5620;53.570;9.718;2022-11-15T15:16:21;14.20;44.10
11132;DHT22;5620;53.570;9.718;2022-11-15T15:18:47;14.10;62.30
11132;DHT22;5620;53.570;9.718;2022-11-15T15:21:25;14.00;75.90
11132;DHT22;5620;53.570;9.718;2022-11-15T15:23:51;13.90;91.50
11132;DHT22;5620;53.570;9.718;2022-11-15T15:26:21;13.70;97.20
11132;DHT22;5620;53.570;9.718;2022-11-15T15:28:46;13.50;99.90
11132;DHT22;5620;53.570;9.718;2022-11-15T15:31:12;13.20;99.90
11132;DHT22;5620;53.570;9.718;2022-11-15T15:33:38;12.90;99.90
11132;DHT22;5620;53.570;9.718;2022-11-15T15:36:03;12.70;99.90
11132;DHT22;5620;53.570;9.718;2022-11-15T15:38:30;12.50;99.90
11132;DHT22;5620;53.570;9.718;2022-11-15T15:40:57;12.40;99.90
11132;DHT22;5620;53.570;9.718;2022-11-15T15:43:24;12.20;99.90
11132;DHT22;5620;53.570;9.718;2022-11-15T15:45:49;12.10;99.90
11132;DHT22;5620;53.570;9.718;2022-11-15T15:48:16;12.00;99.90
11132;DHT22;5620;53.570;9.718;2022-11-15T15:50:42;11.90;99.90
11132;DHT22;5620;53.570;9.718;2022-11-15T15:53:10;11.90;1.00
11132;DHT22;5620;53.570;9.718;2022-11-15T15:55:37;11.80;1.00
11132;DHT22;5620;53.570;9.718;2022-11-15T15:58:04;11.80;1.00
11132;DHT22;5620;53.570;9.718;2022-11-15T16:00:29;11.80;1.00
11132;DHT22;5620;53.570;9.718;2022-11-15T16:02:56;11.80;1.00
11132;DHT22;5620;53.570;9.718;2022-11-15T16:05:22;11.80;1.00
11132;DHT22;5620;53.570;9.718;2022-11-15T16:07:49;11.90;1.00
11132;DHT22;5620;53.570;9.718;2022-11-15T16:10:35;11.90;1.00
11132;DHT22;5620;53.570;9.718;2022-11-15T16:13:03;12.00;1.00
11132;DHT22;5620;53.570;9.718;2022-11-15T16:15:33;12.10;13.50
11132;DHT22;5620;53.570;9.718;2022-11-15T16:18:02;12.20;36.10
11132;DHT22;5620;53.570;9.718;2022-11-15T16:20:45;12.30;62.50
11132;DHT22;5620;53.570;9.718;2022-11-15T16:23:14;12.30;86.10
11132;DHT22;5620;53.570;9.718;2022-11-15T16:25:54;12.40;92.00
11132;DHT22;5620;53.570;9.718;2022-11-15T16:28:30;12.40;97.80
11132;DHT22;5620;53.570;9.718;2022-11-15T16:31:11;12.40;99.90
11132;DHT22;5620;53.570;9.718;2022-11-15T16:33:38;12.40;99.90
11132;DHT22;5620;53.570;9.718;2022-11-15T16:36:06;12.40;99.90
11132;DHT22;5620;53.570;9.718;2022-11-15T16:38:32;12.30;99.90
11132;DHT22;5620;53.570;9.718;2022-11-15T16:41:08;12.30;99.90
11132;DHT22;5620;53.570;9.718;2022-11-15T16:43:33;12.30;99.90
11132;DHT22;5620;53.570;9.718;2022-11-15T16:46:07;12.30;99.90
11132;DHT22;5620;53.570;9.718;2022-11-15T16:48:35;12.30;99.90
11132;DHT22;5620;53.570;9.718;2022-11-15T16:51:00;12.30;99.90
11132;DHT22;5620;53.570;9.718;2022-11-15T16:53:27;12.30;99.90
11132;DHT22;5620;53.570;9.718;2022-11-15T16:55:55;12.30;99.90
11132;DHT22;5620;53.570;9.718;2022-11-15T16:58:21;12.20;99.90
11132;DHT22;5620;53.570;9.718;2022-11-15T17:00:55;12.10;99.90
11132;DHT22;5620;53.570;9.718;2022-11-15T17:03:24;12.00;99.90
11132;DHT22;5620;53.570;9.718;2022-11-15T17:05:51;11.90;99.90
11132;DHT22;5620;53.570;9.718;2022-11-15T17:08:18;11.90;99.90
11132;DHT22;5620;53.570;9.718;2022-11-15T17:10:46;11.80;1.00
11132;DHT22;5620;53.570;9.718;2022-11-15T17:13:13;11.90;1.00
11132;DHT22;5620;53.570;9.718;2022-11-15T17:15:40;11.90;1.00
11132;DHT22;5620;53.570;9.718;2022-11-15T17:18:09;11.80;1.00
11132;DHT22;5620;53.570;9.718;2022-11-15T17:20:37;11.70;1.00
11132;DHT22;5620;53.570;9.718;2022-11-15T17:23:04;11.60;1.00
11132;DHT22;5620;53.570;9.718;2022-11-15T17:25:29;11.60;1.00
11132;DHT22;5620;53.570;9.718;2022-11-15T17:27:57;11.50;1.00
11132;DHT22;5620;53.570;9.718;2022-11-15T17:30:23;11.40;1.00
11132;DHT22;5620;53.570;9.718;2022-11-15T17:32:50;11.30;8.40
11132;DHT22;5620;53.570;9.718;2022-11-15T17:35:16;11.30;84.70
11132;DHT22;5620;53.570;9.718;2022-11-15T17:37:42;11.30;99.90
11132;DHT22;5620;53.570;9.718;2022-11-15T17:40:09;11.30;99.90
11132;DHT22;5620;53.570;9.718;2022-11-15T17:42:39;11.30;99.90
11132;DHT22;5620;53.570;9.718;2022-11-15T17:45:07;11.30;99.90
11132;DHT22;5620;53.570;9.718;2022-11-15T17:47:32;11.30;99.90
11132;DHT22;5620;53.570;9.718;2022-11-15T17:49:58;11.30;99.90
11132;DHT22;5620;53.570;9.718;2022-11-15T17:52:23;11.30;99.90
11132;DHT22;5620;53.570;9.718;2022-11-15T17:54:50;11.40;1.00
11132;DHT22;5620;53.570;9.718;2022-11-15T17:57:17;11.50;1.00
11132;DHT22;5620;53.570;9.718;2022-11-15T17:59:44;11.50;1.00
11132;DHT22;5620;53.570;9.718;2022-11-15T18:02:11;11.60;1.00
11132;DHT22;5620;53.570;9.718;2022-11-15T18:04:37;11.50;1.00
11132;DHT22;5620;53.570;9.718;2022-11-15T18:07:03;11.50;1.00
11132;DHT22;5620;53.570;9.718;2022-11-15T18:09:30;11.40;1.00
11132;DHT22;5620;53.570;9.718;2022-11-15T18:11:55;11.40;1.00
11132;DHT22;5620;53.570;9.718;2022-11-15T18:14:23;11.40;1.00
11132;DHT22;5620;53.570;9.718;2022-11-15T18:16:50;11.30;1.00
11132;DHT22;5620;53.570;9.718;2022-11-15T18:19:15;11.20;1.00
11132;DHT22;5620;53.570;9.718;2022-11-15T18:21:44;11.10;1.00
11132;DHT22;5620;53.570;9.718;2022-11-15T18:24:09;11.00;51.80
11132;DHT22;5620;53.570;9.718;2022-11-15T18:26:35;11.00;96.30
11132;DHT22;5620;53.570;9.718;2022-11-15T18:29:04;11.00;99.90